createdAt,value
2018-04-13T00:02:16.884Z,64.73
2018-04-13T00:04:45.902Z,64.26
2018-04-13T00:07:14.150Z,64.79
2018-04-13T00:09:43.162Z,66.17
2018-04-13T00:12:11.431Z,66.34
2018-04-13T00:14:40.168Z,68.65
2018-04-13T00:17:08.436Z,70.27
2018-04-13T00:19:36.670Z,70.18
2018-04-13T00:22:04.932Z,69.19
2018-04-13T00:24:33.168Z,68.65
2018-04-13T00:27:01.424Z,66.60
2018-04-13T00:29:30.430Z,65.50
2018-04-13T00:31:59.449Z,66.77
2018-04-13T00:34:27.699Z,67.85
2018-04-13T00:36:56.720Z,67.37
2018-04-13T00:39:24.962Z,68.77
2018-04-13T00:41:53.199Z,69.10
2018-04-13T00:44:21.451Z,68.65
2018-04-13T00:46:49.703Z,67.92
2018-04-13T00:49:17.954Z,67.42
2018-04-13T00:51:46.200Z,69.96
2018-04-13T00:54:14.443Z,70.53
2018-04-13T00:56:42.694Z,71.40
2018-04-13T00:59:10.939Z,71.55
2018-04-13T01:01:39.195Z,71.84
2018-04-13T01:04:08.209Z,71.46
2018-04-13T01:06:36.454Z,72.94
2018-04-13T01:09:04.723Z,71.94
2018-04-13T01:11:32.966Z,72.31
2018-04-13T01:14:01.219Z,72.20
2018-04-13T01:16:30.246Z,71.96
2018-04-13T01:18:58.503Z,72.62
2018-04-13T01:21:27.516Z,71.29
2018-04-13T01:23:55.776Z,71.47
2018-04-13T01:26:24.789Z,71.19
2018-04-13T01:28:53.047Z,71.65
2018-04-13T01:31:22.055Z,70.70
2018-04-13T01:33:51.076Z,71.14
2018-04-13T01:36:19.315Z,72.64
2018-04-13T01:38:47.742Z,72.32
2018-04-13T01:41:15.987Z,71.28
2018-04-13T01:43:45.004Z,73.11
2018-04-13T01:46:13.238Z,73.26
2018-04-13T01:48:41.490Z,71.75
2018-04-13T01:51:09.727Z,69.53
2018-04-13T01:53:38.742Z,69.00
2018-04-13T01:56:06.991Z,69.90
2018-04-13T01:58:35.248Z,70.66
2018-04-13T02:01:03.496Z,70.45
2018-04-13T02:03:31.751Z,70.84
2018-04-13T02:06:00.770Z,70.37
2018-04-13T02:08:29.007Z,69.47
2018-04-13T02:10:57.253Z,70.33
2018-04-13T02:13:25.495Z,70.02
2018-04-13T02:15:53.747Z,69.40
2018-04-13T02:18:21.993Z,68.33
2018-04-13T02:20:50.238Z,69.02
2018-04-13T02:23:18.489Z,69.51
2018-04-13T02:25:46.746Z,68.87
2018-04-13T02:28:15.003Z,66.56
2018-04-13T02:30:43.399Z,66.33
2018-04-13T02:33:11.659Z,69.19
2018-04-13T02:35:39.894Z,70.28
2018-04-13T02:38:08.142Z,72.39
2018-04-13T02:40:36.404Z,73.98
2018-04-13T02:43:04.661Z,73.81
2018-04-13T02:45:33.671Z,73.56
2018-04-13T02:48:01.930Z,74.39
2018-04-13T02:50:30.187Z,74.58
2018-04-13T02:52:58.432Z,74.90
2018-04-13T02:55:26.685Z,74.43
2018-04-13T02:57:54.926Z,72.63
2018-04-13T03:00:23.183Z,71.33
2018-04-13T03:02:51.432Z,71.39
2018-04-13T03:05:19.679Z,73.09
2018-04-13T03:07:48.708Z,73.40
2018-04-13T03:10:16.947Z,73.43
2018-04-13T03:12:45.204Z,73.66
2018-04-13T03:15:13.444Z,73.58
2018-04-13T03:17:41.702Z,73.19
2018-04-13T03:20:10.727Z,73.06
2018-04-13T03:22:39.504Z,72.13
2018-04-13T03:25:08.515Z,72.56
2018-04-13T03:27:36.766Z,71.58
2018-04-13T03:30:05.775Z,69.42
2018-04-13T03:32:34.801Z,69.84
2018-04-13T03:35:03.045Z,71.10
2018-04-13T03:37:32.064Z,71.50
2018-04-13T03:40:00.322Z,71.00
2018-04-13T03:42:29.353Z,70.62
2018-04-13T03:44:57.606Z,70.70
2018-04-13T03:47:26.619Z,70.86
2018-04-13T03:49:54.870Z,71.21
2018-04-13T03:52:23.897Z,72.51
2018-04-13T03:54:52.142Z,71.54
2018-04-13T03:57:20.439Z,72.27
2018-04-13T03:59:49.445Z,71.99
2018-04-13T04:02:18.460Z,72.31
2018-04-13T04:04:46.707Z,71.27
2018-04-13T04:07:15.741Z,73.10
2018-04-13T04:09:43.985Z,70.50
2018-04-13T04:12:13.008Z,70.77
2018-04-13T04:14:41.255Z,73.50
2018-04-13T04:17:10.850Z,74.89
2018-04-13T04:19:56.684Z,76.73
2018-04-13T04:22:42.375Z,77.23
2018-04-13T04:28:19.877Z,77.68
2018-04-13T04:30:48.123Z,76.00
2018-04-13T04:33:17.126Z,75.88
2018-04-13T04:35:45.948Z,73.76
2018-04-13T04:38:14.218Z,73.21
2018-04-13T04:40:42.469Z,75.15
2018-04-13T04:43:11.596Z,75.65
2018-04-13T04:45:39.822Z,75.49
2018-04-13T04:48:08.130Z,75.85
2018-04-13T04:50:37.154Z,75.37
2018-04-13T04:53:05.399Z,74.60
2018-04-13T04:55:34.420Z,73.78
2018-04-13T04:58:02.675Z,74.18
2018-04-13T05:00:31.696Z,73.34
2018-04-13T05:02:59.962Z,73.87
2018-04-13T05:05:28.970Z,72.49
2018-04-13T05:07:58.099Z,73.33
2018-04-13T05:10:26.369Z,70.39
2018-04-13T05:12:54.607Z,69.86
2018-04-13T05:15:22.867Z,69.18
2018-04-13T05:17:51.110Z,69.22
2018-04-13T05:20:19.362Z,67.92
2018-04-13T05:22:48.375Z,67.79
2018-04-13T05:25:17.251Z,68.23
2018-04-13T05:27:46.251Z,68.27
2018-04-13T05:30:15.265Z,65.78
2018-04-13T05:32:43.528Z,64.72
2018-04-13T05:35:12.590Z,64.41
2018-04-13T05:37:40.786Z,65.21
2018-04-13T05:40:09.047Z,57.43
2018-04-13T05:42:37.290Z,45.09
2018-04-13T05:45:05.558Z,38.77
2018-04-13T05:47:33.807Z,36.14
2018-04-13T05:50:02.083Z,33.50
2018-04-13T05:52:30.335Z,31.53
2018-04-13T05:54:58.604Z,33.34
2018-04-13T05:57:26.852Z,31.83
2018-04-13T05:59:55.871Z,27.26
2018-04-13T06:02:24.130Z,24.47
2018-04-13T06:04:52.387Z,25.86
2018-04-13T06:07:20.642Z,28.09
2018-04-13T06:09:48.897Z,27.12
2018-04-13T06:12:17.155Z,26.08
2018-04-13T06:14:45.407Z,27.00
2018-04-13T06:17:13.667Z,26.52
2018-04-13T06:19:41.915Z,25.61
2018-04-13T06:22:10.176Z,23.95
2018-04-13T06:24:38.426Z,24.05
2018-04-13T06:27:06.699Z,21.97
2018-04-13T06:29:35.019Z,19.54
2018-04-13T06:32:03.210Z,18.71
2018-04-13T06:34:31.471Z,18.55
2018-04-13T06:37:00.508Z,19.44
2018-04-13T06:39:28.751Z,22.29
2018-04-13T06:41:57.778Z,22.17
2018-04-13T06:44:26.023Z,28.35
2018-04-13T06:46:55.056Z,31.19
2018-04-13T06:49:23.307Z,34.12
2018-04-13T06:51:53.562Z,36.72
2018-04-13T06:54:21.832Z,37.54
2018-04-13T06:56:50.083Z,40.35
2018-04-13T06:59:19.116Z,43.06
2018-04-13T07:01:47.363Z,44.02
2018-04-13T07:04:16.395Z,44.40
2018-04-13T07:06:44.652Z,44.45
2018-04-13T07:09:13.680Z,41.90
2018-04-13T07:11:41.930Z,42.09
2018-04-13T07:14:10.181Z,39.70
2018-04-13T07:16:38.432Z,40.61
2018-04-13T07:19:06.690Z,40.13
2018-04-13T07:21:34.938Z,36.40
2018-04-13T07:24:03.970Z,36.03
2018-04-13T07:26:32.223Z,38.19
2018-04-13T07:29:01.247Z,39.34
2018-04-13T07:31:29.503Z,33.17
2018-04-13T07:33:58.666Z,31.16
2018-04-13T07:36:26.916Z,31.15
2018-04-13T07:38:55.495Z,26.88
2018-04-13T07:41:24.218Z,23.56
2018-04-13T07:43:52.470Z,24.52
2018-04-13T07:46:20.716Z,24.56
2018-04-13T07:48:49.801Z,24.96
2018-04-13T07:51:18.069Z,27.96
2018-04-13T07:53:46.336Z,25.63
2018-04-13T07:56:14.599Z,22.35
2018-04-13T07:58:43.285Z,23.74
2018-04-13T08:01:11.117Z,26.01
2018-04-13T08:03:40.466Z,27.65
2018-04-13T08:06:08.398Z,26.69
2018-04-13T08:08:37.410Z,26.61
2018-04-13T08:11:05.678Z,30.73
2018-04-13T08:13:34.697Z,28.46
2018-04-13T08:16:02.983Z,28.44
2018-04-13T08:18:31.238Z,30.58
2018-04-13T08:21:00.264Z,30.49
2018-04-13T08:23:28.533Z,30.88
2018-04-13T08:25:56.791Z,29.52
2018-04-13T08:28:25.808Z,30.25
2018-04-13T08:30:54.084Z,30.72
2018-04-13T08:33:24.351Z,31.87
2018-04-13T08:35:52.599Z,31.14
2018-04-13T08:38:20.868Z,30.65
2018-04-13T08:40:49.884Z,30.02
2018-04-13T08:43:18.171Z,29.10
2018-04-13T08:45:46.402Z,30.88
2018-04-13T08:48:14.669Z,27.60
2018-04-13T08:50:42.930Z,24.95
2018-04-13T08:53:11.197Z,25.79
2018-04-13T08:55:39.437Z,27.50
2018-04-13T08:58:07.723Z,25.87
2018-04-13T09:00:36.751Z,22.81
2018-04-13T09:03:05.016Z,23.83
2018-04-13T09:05:33.271Z,23.31
2018-04-13T09:08:02.314Z,24.50
2018-04-13T09:10:30.562Z,22.49
2018-04-13T09:12:58.887Z,20.40
2018-04-13T09:15:27.863Z,17.25
2018-04-13T09:17:56.131Z,16.42
2018-04-13T09:20:24.387Z,17.38
2018-04-13T09:22:53.607Z,16.87
2018-04-13T09:25:21.862Z,14.61
2018-04-13T09:27:50.115Z,14.00
2018-04-13T09:30:18.388Z,15.72
2018-04-13T09:32:46.758Z,18.66
2018-04-13T09:35:15.073Z,19.89
2018-04-13T09:37:43.291Z,20.73
2018-04-13T09:40:13.105Z,22.37
2018-04-13T09:42:41.371Z,22.30
2018-04-13T09:45:10.397Z,19.34
2018-04-13T09:47:38.654Z,16.04
2018-04-13T09:50:07.670Z,15.16
2018-04-13T09:52:35.939Z,17.08
2018-04-13T09:55:04.195Z,17.52
2018-04-13T09:57:32.456Z,18.43
2018-04-13T10:00:00.719Z,16.38
2018-04-13T10:02:44.771Z,15.82
2018-04-13T10:05:16.671Z,16.58
2018-04-13T10:07:45.704Z,19.03
2018-04-13T10:10:13.949Z,20.33
2018-04-13T10:12:42.971Z,20.71
2018-04-13T10:15:11.219Z,17.38
2018-04-13T10:17:39.484Z,16.99
2018-04-13T10:20:07.738Z,16.00
2018-04-13T10:22:35.999Z,15.28
2018-04-13T10:25:04.252Z,17.22
2018-04-13T10:27:33.288Z,18.46
2018-04-13T10:30:01.540Z,20.10
2018-04-13T10:32:29.795Z,21.85
2018-04-13T10:34:58.071Z,19.68
2018-04-13T10:37:26.320Z,19.80
2018-04-13T10:39:54.583Z,20.38
2018-04-13T10:42:22.836Z,20.66
2018-04-13T10:44:51.902Z,18.40
2018-04-13T10:47:20.139Z,18.71
2018-04-13T10:49:48.412Z,20.03
2018-04-13T10:52:16.672Z,19.59
2018-04-13T10:54:45.696Z,19.44
2018-04-13T10:57:13.934Z,20.38
2018-04-13T10:59:42.200Z,19.92
2018-04-13T11:02:10.450Z,21.79
2018-04-13T11:04:38.715Z,21.63
2018-04-13T11:07:06.964Z,25.16
2018-04-13T11:09:35.994Z,24.68
2018-04-13T11:12:04.242Z,27.51
2018-04-13T11:14:33.284Z,24.96
2018-04-13T11:17:01.535Z,26.84
2018-04-13T11:19:31.051Z,26.93
2018-04-13T11:21:59.572Z,27.63
2018-04-13T11:24:27.845Z,29.22
2018-04-13T11:26:56.091Z,28.95
2018-04-13T11:29:24.375Z,29.71
2018-04-13T11:31:52.637Z,28.66
2018-04-13T11:34:21.659Z,28.41
2018-04-13T11:36:49.916Z,27.48
2018-04-13T11:39:18.934Z,26.12
2018-04-13T11:41:47.201Z,24.36
2018-04-13T11:44:16.227Z,24.55
2018-04-13T11:46:44.489Z,23.40
2018-04-13T11:49:12.734Z,24.10
2018-04-13T11:51:41.000Z,22.53
2018-04-13T11:54:10.495Z,24.16
2018-04-13T11:56:38.839Z,21.89
2018-04-13T11:59:07.114Z,20.03
2018-04-13T12:01:36.162Z,18.74
2018-04-13T12:04:04.411Z,17.75
2018-04-13T12:06:32.665Z,21.21
2018-04-13T12:09:00.947Z,20.41
2018-04-13T12:11:29.974Z,19.13
2018-04-13T12:13:58.235Z,21.93
2018-04-13T12:16:26.489Z,23.30
2018-04-13T12:18:54.755Z,25.13
2018-04-13T12:21:22.999Z,26.54
2018-04-13T12:23:51.267Z,24.43
2018-04-13T12:26:19.539Z,24.01
2018-04-13T12:28:48.552Z,24.17
2018-04-13T12:31:17.037Z,25.96
2018-04-13T12:33:45.294Z,26.87
2018-04-13T12:36:14.317Z,28.62
2018-04-13T12:38:42.687Z,26.30
2018-04-13T12:41:10.938Z,26.87
2018-04-13T12:43:39.191Z,25.36
2018-04-13T12:46:08.691Z,22.16
2018-04-13T12:48:36.955Z,21.28
2018-04-13T12:51:05.203Z,19.30
2018-04-13T12:53:35.506Z,20.37
2018-04-13T12:56:03.727Z,21.09
2018-04-13T12:58:31.988Z,21.60
2018-04-13T13:01:01.015Z,22.58
2018-04-13T13:03:29.271Z,25.19
2018-04-13T13:05:57.531Z,26.01
2018-04-13T13:08:25.801Z,27.52
2018-04-13T13:10:54.056Z,28.46
2018-04-13T13:13:22.314Z,29.36
2018-04-13T13:15:50.567Z,28.93
2018-04-13T13:18:20.847Z,30.79
2018-04-13T13:20:49.092Z,30.39
2018-04-13T13:23:17.363Z,30.83
2018-04-13T13:25:45.618Z,30.98
2018-04-13T13:28:14.551Z,31.95
2018-04-13T13:30:42.860Z,31.92
2018-04-13T13:33:11.832Z,32.20
2018-04-13T13:35:40.083Z,32.57
2018-04-13T13:38:09.108Z,34.48
2018-04-13T13:40:37.369Z,34.58
2018-04-13T13:43:06.389Z,34.96
2018-04-13T13:45:34.652Z,35.14
2018-04-13T13:48:03.695Z,35.27
2018-04-13T13:50:31.951Z,36.14
2018-04-13T13:53:00.212Z,35.07
2018-04-13T13:55:28.478Z,36.08
2018-04-13T13:57:57.486Z,35.85
2018-04-13T14:00:26.478Z,36.26
2018-04-13T14:02:54.735Z,37.25
2018-04-13T14:05:22.987Z,37.98
2018-04-13T14:07:51.243Z,38.49
2018-04-13T14:10:20.474Z,40.88
2018-04-13T14:12:48.812Z,42.05
2018-04-13T14:15:17.082Z,41.07
2018-04-13T14:17:46.100Z,41.13
2018-04-13T14:20:14.361Z,40.35
2018-04-13T14:22:43.401Z,40.87
2018-04-13T14:25:11.636Z,41.86
2018-04-13T14:27:40.647Z,43.43
2018-04-13T14:30:08.919Z,44.83
2018-04-13T14:32:37.926Z,49.24
2018-04-13T14:35:06.188Z,51.53
2018-04-13T14:37:35.199Z,46.88
2018-04-13T14:40:04.227Z,44.93
2018-04-13T14:42:32.478Z,50.75
2018-04-13T14:45:01.517Z,53.53
2018-04-13T14:47:29.773Z,53.74
2018-04-13T14:49:58.023Z,51.36
2018-04-13T14:52:27.364Z,52.94
2018-04-13T14:54:55.626Z,62.86
2018-04-13T14:57:24.631Z,69.19
2018-04-13T14:59:52.892Z,75.52
2018-04-13T15:02:21.916Z,83.72
2018-04-13T15:04:50.423Z,84.16
2018-04-13T15:07:18.669Z,80.75
2018-04-13T15:09:46.917Z,82.60
2018-04-13T15:12:15.203Z,84.15
2018-04-13T15:14:43.442Z,77.67
2018-04-13T15:17:11.684Z,84.76
2018-04-13T15:19:40.775Z,83.35
2018-04-13T15:22:09.798Z,87.34
2018-04-13T15:24:38.047Z,83.70
2018-04-13T15:27:07.074Z,81.85
2018-04-13T15:29:35.319Z,85.50
2018-04-13T15:32:03.567Z,86.10
2018-04-13T15:34:31.814Z,78.46
2018-04-13T15:37:00.109Z,84.26
2018-04-13T15:39:29.070Z,79.57
2018-04-13T15:41:58.085Z,83.25
2018-04-13T15:44:26.343Z,83.05
2018-04-13T15:46:54.575Z,83.68
2018-04-13T15:49:22.827Z,82.57
2018-04-13T15:51:51.096Z,85.06
2018-04-13T15:54:20.114Z,81.14
2018-04-13T15:56:48.357Z,84.20
2018-04-13T15:59:17.390Z,84.13
2018-04-13T16:01:45.652Z,82.92
2018-04-13T16:04:13.903Z,84.45
2018-04-13T16:06:42.184Z,82.40
2018-04-13T16:09:10.417Z,80.22
2018-04-13T16:11:38.684Z,79.60
2018-04-13T16:14:07.443Z,78.68
2018-04-13T16:16:36.467Z,77.21
2018-04-13T16:19:04.734Z,77.51
2018-04-13T16:21:33.751Z,75.51
2018-04-13T16:24:02.123Z,73.56
2018-04-13T16:26:30.402Z,75.57
2018-04-13T16:28:59.427Z,76.27
2018-04-13T16:31:27.686Z,76.97
2018-04-13T16:33:55.951Z,77.68
2018-04-13T16:36:24.971Z,75.46
2018-04-13T16:38:53.244Z,71.95
2018-04-13T16:41:21.497Z,64.59
2018-04-13T16:43:49.768Z,61.74
2018-04-13T16:46:18.026Z,64.08
2018-04-13T16:48:46.281Z,65.12
2018-04-13T16:51:14.532Z,63.22
2018-04-13T16:53:44.804Z,63.73
2018-04-13T16:56:13.063Z,63.55
2018-04-13T16:58:41.328Z,63.92
2018-04-13T17:01:11.068Z,64.67
2018-04-13T17:03:39.345Z,66.15
2018-04-13T17:06:07.619Z,64.98
2018-04-13T17:08:35.888Z,65.60
2018-04-13T17:11:04.982Z,63.81
2018-04-13T17:13:34.026Z,65.09
2018-04-13T17:16:02.272Z,65.08
2018-04-13T17:18:30.529Z,65.20
2018-04-13T17:20:59.556Z,71.27
2018-04-13T17:23:27.808Z,69.78
2018-04-13T17:25:56.840Z,69.72
2018-04-13T17:28:25.142Z,70.41
2018-04-13T17:30:53.403Z,70.34
2018-04-13T17:33:21.670Z,75.23
2018-04-13T17:35:49.931Z,78.14
2018-04-13T17:38:18.622Z,80.23
2018-04-13T17:40:47.658Z,82.05
2018-04-13T17:43:15.902Z,83.07
2018-04-13T17:45:44.919Z,84.00
2018-04-13T17:48:13.184Z,84.57
2018-04-13T17:50:42.204Z,85.36
2018-04-13T17:53:10.444Z,86.18
2018-04-13T17:55:39.458Z,87.70
2018-04-13T17:58:07.715Z,88.70
2018-04-13T18:00:35.999Z,89.61
2018-04-13T18:03:04.299Z,90.44
2018-04-13T18:05:33.330Z,91.08
2018-04-13T18:08:01.588Z,91.35
2018-04-13T18:10:29.834Z,91.77
2018-04-13T18:12:58.152Z,91.81
2018-04-13T18:15:26.394Z,90.34
2018-04-13T18:17:54.645Z,90.44
2018-04-13T18:20:23.314Z,91.00
2018-04-13T18:22:51.574Z,91.86
2018-04-13T18:25:19.827Z,91.71
2018-04-13T18:27:48.131Z,91.74
2018-04-13T18:30:17.163Z,92.43
2018-04-13T18:32:45.425Z,93.06
2018-04-13T18:35:13.697Z,92.61
2018-04-13T18:37:41.957Z,92.83
2018-04-13T18:40:10.970Z,93.07
2018-04-13T18:42:39.248Z,91.92
2018-04-13T18:45:08.259Z,91.65
2018-04-13T18:47:36.519Z,92.78
2018-04-13T18:50:05.522Z,93.51
2018-04-13T18:52:34.547Z,93.53
2018-04-13T18:55:02.805Z,93.79
2018-04-13T18:57:31.080Z,93.84
2018-04-13T19:00:00.098Z,94.03
2018-04-13T19:02:28.352Z,94.05
2018-04-13T19:04:57.372Z,94.16
2018-04-13T19:07:25.644Z,94.11
2018-04-13T19:09:54.654Z,92.35
2018-04-13T19:12:22.911Z,92.77
2018-04-13T19:14:51.940Z,93.12
2018-04-13T19:17:20.200Z,93.39
2018-04-13T19:19:48.475Z,93.85
2018-04-13T19:22:17.523Z,94.10
2018-04-13T19:24:45.861Z,94.02
2018-04-13T19:27:14.117Z,93.92
2018-04-13T19:29:42.368Z,94.33
2018-04-13T19:32:10.637Z,92.85
2018-04-13T19:34:39.723Z,91.43
2018-04-13T19:37:07.982Z,92.39
2018-04-13T19:39:37.001Z,92.83
2018-04-13T19:42:05.262Z,92.62
2018-04-13T19:44:33.539Z,93.08
2018-04-13T19:47:01.809Z,92.56
2018-04-13T19:49:30.829Z,91.36
2018-04-13T19:51:59.094Z,91.97
2018-04-13T19:54:28.116Z,92.32
2018-04-13T19:56:56.363Z,92.98
2018-04-13T19:59:25.393Z,93.69
2018-04-13T20:01:54.411Z,92.72
2018-04-13T20:04:22.664Z,92.65
2018-04-13T20:06:50.931Z,92.85
2018-04-13T20:09:19.955Z,91.60
2018-04-13T20:11:48.813Z,91.80
2018-04-13T20:14:24.982Z,92.18
2018-04-13T20:16:53.462Z,92.73
2018-04-13T20:19:22.480Z,92.95
2018-04-13T20:21:50.734Z,92.25
2018-04-13T20:24:19.846Z,92.97
2018-04-13T20:26:48.246Z,93.35
2018-04-13T20:29:16.507Z,93.05
2018-04-13T20:31:45.524Z,92.87
2018-04-13T20:34:13.797Z,92.89
2018-04-13T20:36:42.044Z,92.18
2018-04-13T20:39:10.297Z,90.13
2018-04-13T20:41:39.318Z,89.89
2018-04-13T20:44:07.571Z,90.41
2018-04-13T20:46:35.825Z,91.22
2018-04-13T20:49:04.088Z,91.13
2018-04-13T20:51:32.360Z,92.22
2018-04-13T20:54:01.367Z,92.31
2018-04-13T20:56:29.635Z,91.47
2018-04-13T20:58:59.900Z,92.55
2018-04-13T21:01:28.166Z,93.55
2018-04-13T21:03:56.421Z,94.06
2018-04-13T21:06:25.451Z,94.31
2018-04-13T21:08:53.706Z,94.41
2018-04-13T21:11:21.982Z,94.64
2018-04-13T21:13:51.078Z,94.54
2018-04-13T21:16:19.344Z,94.19
2018-04-13T21:18:47.603Z,92.55
2018-04-13T21:21:15.867Z,92.36
2018-04-13T21:23:44.123Z,92.89
2018-04-13T21:26:12.391Z,93.53
2018-04-13T21:28:41.411Z,94.16
2018-04-13T21:31:09.775Z,94.46
2018-04-13T21:33:38.029Z,94.63
2018-04-13T21:36:06.300Z,94.55
2018-04-13T21:38:34.543Z,94.66
2018-04-13T21:41:02.812Z,94.71
2018-04-13T21:43:31.090Z,94.68
2018-04-13T21:45:59.346Z,94.30
2018-04-13T21:48:28.395Z,92.54
2018-04-13T21:50:56.648Z,92.16
2018-04-13T21:53:24.903Z,93.11
2018-04-13T21:55:53.919Z,93.66
2018-04-13T21:58:22.427Z,92.21
2018-04-13T22:00:50.678Z,92.39
2018-04-13T22:03:19.696Z,93.22
2018-04-13T22:05:47.955Z,93.91
2018-04-13T22:08:16.988Z,94.24
2018-04-13T22:10:45.227Z,94.42
2018-04-13T22:13:29.911Z,94.36
2018-04-13T22:15:58.166Z,94.58
2018-04-13T22:18:27.186Z,94.55
2018-04-13T22:20:55.447Z,94.49
2018-04-13T22:23:24.470Z,94.57
2018-04-13T22:25:52.724Z,95.03
2018-04-13T22:28:20.991Z,95.21
2018-04-13T22:30:50.005Z,95.31
2018-04-13T22:33:18.266Z,93.84
2018-04-13T22:35:47.287Z,93.21
2018-04-13T22:38:15.658Z,93.04
2018-04-13T22:40:44.671Z,93.75
2018-04-13T22:43:13.039Z,94.41
2018-04-13T22:45:42.342Z,94.91
2018-04-13T22:48:11.364Z,95.21
2018-04-13T22:50:39.608Z,95.49
2018-04-13T22:53:08.639Z,95.36
2018-04-13T22:55:37.622Z,95.43
2018-04-13T22:58:05.931Z,95.16
2018-04-13T23:00:34.131Z,95.62
2018-04-13T23:03:02.382Z,95.49
2018-04-13T23:05:30.644Z,95.67
2018-04-13T23:07:59.167Z,95.64
2018-04-13T23:10:27.427Z,95.74
2018-04-13T23:12:55.683Z,95.61
2018-04-13T23:15:24.706Z,95.60
2018-04-13T23:17:52.963Z,95.61
2018-04-13T23:20:21.988Z,95.62
2018-04-13T23:22:50.240Z,95.62
2018-04-13T23:25:19.258Z,95.48
2018-04-13T23:27:47.509Z,95.53
2018-04-13T23:30:16.532Z,95.63
2018-04-13T23:32:44.774Z,95.67
2018-04-13T23:35:13.179Z,95.46
2018-04-13T23:37:41.896Z,95.41
2018-04-13T23:40:10.154Z,95.48
2018-04-13T23:42:39.176Z,95.43
2018-04-13T23:45:07.436Z,95.20
2018-04-13T23:47:35.691Z,95.05
2018-04-13T23:50:03.942Z,95.20
2018-04-13T23:52:32.439Z,94.69
2018-04-13T23:55:00.680Z,95.00
2018-04-13T23:57:28.927Z,94.83
2018-04-13T23:59:57.959Z,95.32
